sensor_id;sensor_type;location;lat;lon;timestamp;temperature;humidity
17489;DHT22;8861;52.644;4.734;2024-01-11T00:00:52;-2.80;99.90
17489;DHT22;8861;52.644;4.734;2024-01-11T00:03:19;-2.80;99.90
17489;DHT22;8861;52.644;4.734;2024-01-11T00:05:46;-2.80;99.90
17489;DHT22;8861;52.644;4.734;2024-01-11T00:08:13;-2.80;99.90
17489;DHT22;8861;52.644;4.734;2024-01-11T00:10:40;-2.80;99.90
17489;DHT22;8861;52.644;4.734;2024-01-11T00:13:07;-2.80;99.90
17489;DHT22;8861;52.644;4.734;2024-01-11T00:15:34;-2.80;99.90
17489;DHT22;8861;52.644;4.734;2024-01-11T00:18:03;-2.90;99.90
17489;DHT22;8861;52.644;4.734;2024-01-11T00:20:31;-2.90;99.90
17489;DHT22;8861;52.644;4.734;2024-01-11T00:22:59;-2.90;99.90
17489;DHT22;8861;52.644;4.734;2024-01-11T00:25:26;-2.90;99.90
17489;DHT22;8861;52.644;4.734;2024-01-11T00:27:53;-2.90;99.90
17489;DHT22;8861;52.644;4.734;2024-01-11T00:30:20;-3.00;99.90
17489;DHT22;8861;52.644;4.734;2024-01-11T00:32:48;-2.90;99.90
17489;DHT22;8861;52.644;4.734;2024-01-11T00:35:17;-3.00;99.90
17489;DHT22;8861;52.644;4.734;2024-01-11T00:37:44;-3.00;99.90
17489;DHT22;8861;52.644;4.734;2024-01-11T00:40:11;-3.00;99.90
17489;DHT22;8861;52.644;4.734;2024-01-11T00:42:38;-3.00;99.90
17489;DHT22;8861;52.644;4.734;2024-01-11T00:45:06;-3.10;99.90
17489;DHT22;8861;52.644;4.734;2024-01-11T00:47:33;-3.10;99.90
17489;DHT22;8861;52.644;4.734;2024-01-11T00:50:00;-3.10;99.90
17489;DHT22;8861;52.644;4.734;2024-01-11T00:52:28;-3.10;99.90
17489;DHT22;8861;52.644;4.734;2024-01-11T00:54:55;-3.10;99.90
17489;DHT22;8861;52.644;4.734;2024-01-11T00:57:22;-3.10;99.90
17489;DHT22;8861;52.644;4.734;2024-01-11T00:59:49;-3.20;99.90
17489;DHT22;8861;52.644;4.734;2024-01-11T01:02:16;-3.20;99.90
17489;DHT22;8861;52.644;4.734;2024-01-11T01:04:43;-3.20;99.90
17489;DHT22;8861;52.644;4.734;2024-01-11T01:07:10;-3.20;99.90
17489;DHT22;8861;52.644;4.734;2024-01-11T01:09:39;-3.20;99.90
17489;DHT22;8861;52.644;4.734;2024-01-11T01:12:06;-3.20;99.90
17489;DHT22;8861;52.644;4.734;2024-01-11T01:14:33;-3.30;99.90
17489;DHT22;8861;52.644;4.734;2024-01-11T01:17:00;-3.30;99.90
17489;DHT22;8861;52.644;4.734;2024-01-11T01:19:27;-3.30;99.90
17489;DHT22;8861;52.644;4.734;2024-01-11T01:21:54;-3.30;99.90
17489;DHT22;8861;52.644;4.734;2024-01-11T01:24:21;-3.40;99.90
17489;DHT22;8861;52.644;4.734;2024-01-11T01:26:50;-3.40;99.90
17489;DHT22;8861;52.644;4.734;2024-01-11T01:29:17;-3.40;99.90
17489;DHT22;8861;52.644;4.734;2024-01-11T01:31:46;-3.40;99.90
17489;DHT22;8861;52.644;4.734;2024-01-11T01:34:12;-3.40;99.90
17489;DHT22;8861;52.644;4.734;2024-01-11T01:36:40;-3.50;99.90
17489;DHT22;8861;52.644;4.734;2024-01-11T01:39:07;-3.50;99.90
17489;DHT22;8861;52.644;4.734;2024-01-11T01:41:35;-3.50;99.90
17489;DHT22;8861;52.644;4.734;2024-01-11T01:44:04;-3.50;99.90
17489;DHT22;8861;52.644;4.734;2024-01-11T01:46:31;-3.50;99.90
17489;DHT22;8861;52.644;4.734;2024-01-11T01:48:59;-3.50;99.90
17489;DHT22;8861;52.644;4.734;2024-01-11T01:51:29;-3.50;99.90
17489;DHT22;8861;52.644;4.734;2024-01-11T01:53:57;-3.50;99.90
17489;DHT22;8861;52.644;4.734;2024-01-11T01:56:25;-3.50;99.90
17489;DHT22;8861;52.644;4.734;2024-01-11T01:58:53;-3.50;99.90
17489;DHT22;8861;52.644;4.734;2024-01-11T02:01:23;-3.50;99.90
17489;DHT22;8861;52.644;4.734;2024-01-11T02:03:50;-3.50;99.90
17489;DHT22;8861;52.644;4.734;2024-01-11T02:06:18;-3.50;99.90
17489;DHT22;8861;52.644;4.734;2024-01-11T02:08:46;-3.60;99.90
17489;DHT22;8861;52.644;4.734;2024-01-11T02:11:14;-3.60;99.90
17489;DHT22;8861;52.644;4.734;2024-01-11T02:13:42;-3.60;99.90
17489;DHT22;8861;52.644;4.734;2024-01-11T02:16:10;-3.60;99.90
17489;DHT22;8861;52.644;4.734;2024-01-11T02:18:39;-3.60;99.90
17489;DHT22;8861;52.644;4.734;2024-01-11T02:21:09;-3.60;99.90
17489;DHT22;8861;52.644;4.734;2024-01-11T02:23:41;-3.50;99.90
17489;DHT22;8861;52.644;4.734;2024-01-11T02:26:13;-3.50;99.90
17489;DHT22;8861;52.644;4.734;2024-01-11T02:28:43;-3.50;99.90
17489;DHT22;8861;52.644;4.734;2024-01-11T02:31:11;-3.50;99.90
17489;DHT22;8861;52.644;4.734;2024-01-11T02:33:38;-3.60;99.90
17489;DHT22;8861;52.644;4.734;2024-01-11T02:36:06;-3.60;99.90
17489;DHT22;8861;52.644;4.734;2024-01-11T02:38:34;-3.60;99.90
17489;DHT22;8861;52.644;4.734;2024-01-11T02:41:05;-3.60;99.90
17489;DHT22;8861;52.644;4.734;2024-01-11T02:43:35;-3.60;99.90
17489;DHT22;8861;52.644;4.734;2024-01-11T02:46:02;-3.60;99.90
17489;DHT22;8861;52.644;4.734;2024-01-11T02:48:30;-3.60;99.90
17489;DHT22;8861;52.644;4.734;2024-01-11T02:50:57;-3.60;99.90
17489;DHT22;8861;52.644;4.734;2024-01-11T02:53:24;-3.60;99.90
17489;DHT22;8861;52.644;4.734;2024-01-11T02:55:51;-3.60;99.90
17489;DHT22;8861;52.644;4.734;2024-01-11T02:58:18;-3.60;99.90
17489;DHT22;8861;52.644;4.734;2024-01-11T03:00:47;-3.60;99.90
17489;DHT22;8861;52.644;4.734;2024-01-11T03:03:14;-3.60;99.90
17489;DHT22;8861;52.644;4.734;2024-01-11T03:05:41;-3.50;99.90
17489;DHT22;8861;52.644;4.734;2024-01-11T03:08:08;-3.50;99.90
17489;DHT22;8861;52.644;4.734;2024-01-11T03:10:37;-3.50;99.90
17489;DHT22;8861;52.644;4.734;2024-01-11T03:13:05;-3.50;99.90
17489;DHT22;8861;52.644;4.734;2024-01-11T03:15:32;-3.50;99.90
17489;DHT22;8861;52.644;4.734;2024-01-11T03:18:01;-3.60;99.90
17489;DHT22;8861;52.644;4.734;2024-01-11T03:20:28;-3.60;99.90
17489;DHT22;8861;52.644;4.734;2024-01-11T03:22:55;-3.60;99.90
17489;DHT22;8861;52.644;4.734;2024-01-11T03:25:22;-3.60;99.90
17489;DHT22;8861;52.644;4.734;2024-01-11T03:27:49;-3.60;99.90
17489;DHT22;8861;52.644;4.734;2024-01-11T03:30:16;-3.60;99.90
17489;DHT22;8861;52.644;4.734;2024-01-11T03:32:43;-3.70;99.90
17489;DHT22;8861;52.644;4.734;2024-01-11T03:35:12;-3.70;99.90
17489;DHT22;8861;52.644;4.734;2024-01-11T03:37:39;-3.70;99.90
17489;DHT22;8861;52.644;4.734;2024-01-11T03:40:07;-3.70;99.90
17489;DHT22;8861;52.644;4.734;2024-01-11T03:42:34;-3.80;99.90
17489;DHT22;8861;52.644;4.734;2024-01-11T03:45:01;-3.80;99.90
17489;DHT22;8861;52.644;4.734;2024-01-11T03:47:28;-3.80;99.90
17489;DHT22;8861;52.644;4.734;2024-01-11T03:49:55;-3.80;99.90
17489;DHT22;8861;52.644;4.734;2024-01-11T03:52:24;-3.80;99.90
17489;DHT22;8861;52.644;4.734;2024-01-11T03:54:51;-3.80;99.90
17489;DHT22;8861;52.644;4.734;2024-01-11T03:57:18;-3.80;99.90
17489;DHT22;8861;52.644;4.734;2024-01-11T03:59:45;-3.80;99.90
17489;DHT22;8861;52.644;4.734;2024-01-11T04:02:12;-3.80;99.90
17489;DHT22;8861;52.644;4.734;2024-01-11T04:04:40;-3.80;99.90
17489;DHT22;8861;52.644;4.734;2024-01-11T04:07:08;-3.80;99.90
17489;DHT22;8861;52.644;4.734;2024-01-11T04:09:38;-3.70;99.90
17489;DHT22;8861;52.644;4.734;2024-01-11T04:12:06;-3.80;99.90
17489;DHT22;8861;52.644;4.734;2024-01-11T04:14:33;-3.80;99.90
17489;DHT22;8861;52.644;4.734;2024-01-11T04:17:00;-3.80;99.90
17489;DHT22;8861;52.644;4.734;2024-01-11T04:19:27;-3.70;99.90
17489;DHT22;8861;52.644;4.734;2024-01-11T04:21:54;-3.70;99.90
17489;DHT22;8861;52.644;4.734;2024-01-11T04:24:21;-3.70;99.90
17489;DHT22;8861;52.644;4.734;2024-01-11T04:26:50;-3.70;99.90
17489;DHT22;8861;52.644;4.734;2024-01-11T04:29:17;-3.70;99.90
17489;DHT22;8861;52.644;4.734;2024-01-11T04:31:44;-3.70;99.90
17489;DHT22;8861;52.644;4.734;2024-01-11T04:34:11;-3.70;99.90
17489;DHT22;8861;52.644;4.734;2024-01-11T04:36:38;-3.60;99.90
17489;DHT22;8861;52.644;4.734;2024-01-11T04:39:05;-3.60;99.90
17489;DHT22;8861;52.644;4.734;2024-01-11T04:41:35;-3.70;99.90
17489;DHT22;8861;52.644;4.734;2024-01-11T04:44:03;-3.60;99.90
17489;DHT22;8861;52.644;4.734;2024-01-11T04:46:30;-3.70;99.90
17489;DHT22;8861;52.644;4.734;2024-01-11T04:48:57;-3.60;99.90
17489;DHT22;8861;52.644;4.734;2024-01-11T04:51:24;-3.60;99.90
17489;DHT22;8861;52.644;4.734;2024-01-11T04:53:51;-3.60;99.90
17489;DHT22;8861;52.644;4.734;2024-01-11T04:56:17;-3.70;99.90
17489;DHT22;8861;52.644;4.734;2024-01-11T04:58:45;-3.70;99.90
17489;DHT22;8861;52.644;4.734;2024-01-11T05:01:15;-3.70;99.90
17489;DHT22;8861;52.644;4.734;2024-01-11T05:03:42;-3.70;99.90
17489;DHT22;8861;52.644;4.734;2024-01-11T05:06:15;-3.70;99.90
17489;DHT22;8861;52.644;4.734;2024-01-11T05:08:43;-3.70;99.90
17489;DHT22;8861;52.644;4.734;2024-01-11T05:11:15;-3.70;99.90
17489;DHT22;8861;52.644;4.734;2024-01-11T05:13:42;-3.70;99.90
17489;DHT22;8861;52.644;4.734;2024-01-11T05:16:18;-3.80;99.90
17489;DHT22;8861;52.644;4.734;2024-01-11T05:18:46;-3.70;99.90
17489;DHT22;8861;52.644;4.734;2024-01-11T05:21:13;-3.70;99.90
17489;DHT22;8861;52.644;4.734;2024-01-11T05:23:41;-3.80;99.90
17489;DHT22;8861;52.644;4.734;2024-01-11T05:26:08;-3.80;99.90
17489;DHT22;8861;52.644;4.734;2024-01-11T05:28:35;-3.80;99.90
17489;DHT22;8861;52.644;4.734;2024-01-11T05:31:05;-3.80;99.90
17489;DHT22;8861;52.644;4.734;2024-01-11T05:33:34;-3.80;99.90
17489;DHT22;8861;52.644;4.734;2024-01-11T05:36:01;-3.90;99.90
17489;DHT22;8861;52.644;4.734;2024-01-11T05:38:28;-3.80;99.90
17489;DHT22;8861;52.644;4.734;2024-01-11T05:40:55;-3.80;99.90
17489;DHT22;8861;52.644;4.734;2024-01-11T05:43:22;-3.90;99.90
17489;DHT22;8861;52.644;4.734;2024-01-11T05:45:49;-3.80;99.90
17489;DHT22;8861;52.644;4.734;2024-01-11T05:48:17;-3.90;99.90
17489;DHT22;8861;52.644;4.734;2024-01-11T05:50:46;-3.90;99.90
17489;DHT22;8861;52.644;4.734;2024-01-11T05:53:13;-3.90;99.90
17489;DHT22;8861;52.644;4.734;2024-01-11T05:55:40;-3.90;99.90
17489;DHT22;8861;52.644;4.734;2024-01-11T05:58:07;-3.90;99.90
17489;DHT22;8861;52.644;4.734;2024-01-11T06:00:34;-3.90;99.90
17489;DHT22;8861;52.644;4.734;2024-01-11T06:03:02;-4.00;99.90
17489;DHT22;8861;52.644;4.734;2024-01-11T06:05:30;-3.90;99.90
17489;DHT22;8861;52.644;4.734;2024-01-11T06:07:58;-3.90;99.90
17489;DHT22;8861;52.644;4.734;2024-01-11T06:10:25;-3.90;99.90
17489;DHT22;8861;52.644;4.734;2024-01-11T06:12:52;-3.90;99.90
17489;DHT22;8861;52.644;4.734;2024-01-11T06:15:20;-4.00;99.90
17489;DHT22;8861;52.644;4.734;2024-01-11T06:17:47;-4.00;99.90
17489;DHT22;8861;52.644;4.734;2024-01-11T06:20:14;-4.00;99.90
17489;DHT22;8861;52.644;4.734;2024-01-11T06:22:41;-3.90;99.90
17489;DHT22;8861;52.644;4.734;2024-01-11T06:25:10;-3.90;99.90
17489;DHT22;8861;52.644;4.734;2024-01-11T06:27:37;-3.90;99.90
17489;DHT22;8861;52.644;4.734;2024-01-11T06:30:05;-3.80;99.90
17489;DHT22;8861;52.644;4.734;2024-01-11T06:32:32;-3.80;99.90
17489;DHT22;8861;52.644;4.734;2024-01-11T06:34:59;-3.80;99.90
17489;DHT22;8861;52.644;4.734;2024-01-11T06:37:27;-3.80;99.90
17489;DHT22;8861;52.644;4.734;2024-01-11T06:39:54;-3.80;99.90
17489;DHT22;8861;52.644;4.734;2024-01-11T06:42:23;-3.80;99.90
17489;DHT22;8861;52.644;4.734;2024-01-11T06:44:50;-3.80;99.90
17489;DHT22;8861;52.644;4.734;2024-01-11T06:47:17;-3.70;99.90
17489;DHT22;8861;52.644;4.734;2024-01-11T06:49:45;-3.70;99.90
17489;DHT22;8861;52.644;4.734;2024-01-11T06:52:12;-3.70;99.90
17489;DHT22;8861;52.644;4.734;2024-01-11T06:54:40;-3.70;99.90
17489;DHT22;8861;52.644;4.734;2024-01-11T06:57:07;-3.60;99.90
17489;DHT22;8861;52.644;4.734;2024-01-11T06:59:36;-3.50;99.90
17489;DHT22;8861;52.644;4.734;2024-01-11T07:02:05;-3.50;99.90
17489;DHT22;8861;52.644;4.734;2024-01-11T07:04:32;-3.30;99.90
17489;DHT22;8861;52.644;4.734;2024-01-11T07:07:00;-3.20;99.90
17489;DHT22;8861;52.644;4.734;2024-01-11T07:09:27;-3.10;99.90
17489;DHT22;8861;52.644;4.734;2024-01-11T07:11:54;-3.00;99.90
17489;DHT22;8861;52.644;4.734;2024-01-11T07:14:22;-2.90;99.90
17489;DHT22;8861;52.644;4.734;2024-01-11T07:16:50;-2.70;99.90
17489;DHT22;8861;52.644;4.734;2024-01-11T07:19:17;-2.70;99.90
17489;DHT22;8861;52.644;4.734;2024-01-11T07:21:44;-2.70;99.90
17489;DHT22;8861;52.644;4.734;2024-01-11T07:24:11;-2.60;99.90
17489;DHT22;8861;52.644;4.734;2024-01-11T07:26:38;-2.50;99.90
17489;DHT22;8861;52.644;4.734;2024-01-11T07:29:05;-2.50;99.90
17489;DHT22;8861;52.644;4.734;2024-01-11T07:31:32;-2.40;99.90
17489;DHT22;8861;52.644;4.734;2024-01-11T07:34:00;-2.40;99.90
17489;DHT22;8861;52.644;4.734;2024-01-11T07:36:28;-2.30;99.90
17489;DHT22;8861;52.644;4.734;2024-01-11T07:38:56;-2.20;99.90
17489;DHT22;8861;52.644;4.734;2024-01-11T07:41:23;-2.20;99.90
17489;DHT22;8861;52.644;4.734;2024-01-11T07:43:50;-2.20;99.90
17489;DHT22;8861;52.644;4.734;2024-01-11T07:46:17;-2.10;99.90
17489;DHT22;8861;52.644;4.734;2024-01-11T07:48:44;-2.10;99.90
17489;DHT22;8861;52.644;4.734;2024-01-11T07:51:12;-2.00;99.90
17489;DHT22;8861;52.644;4.734;2024-01-11T07:53:39;-2.00;99.90
17489;DHT22;8861;52.644;4.734;2024-01-11T07:56:06;-1.90;99.90
17489;DHT22;8861;52.644;4.734;2024-01-11T07:58:33;-1.80;99.90
17489;DHT22;8861;52.644;4.734;2024-01-11T08:01:03;-1.90;99.90
17489;DHT22;8861;52.644;4.734;2024-01-11T08:03:30;-1.80;99.90
17489;DHT22;8861;52.644;4.734;2024-01-11T08:06:00;-1.80;99.90
17489;DHT22;8861;52.644;4.734;2024-01-11T08:08:29;-1.80;99.90
17489;DHT22;8861;52.644;4.734;2024-01-11T08:10:56;-1.70;99.90
17489;DHT22;8861;52.644;4.734;2024-01-11T08:13:23;-1.70;99.90
17489;DHT22;8861;52.644;4.734;2024-01-11T08:15:50;-1.60;99.90
17489;DHT22;8861;52.644;4.734;2024-01-11T08:18:19;-1.60;99.90
17489;DHT22;8861;52.644;4.734;2024-01-11T08:20:46;-1.50;99.90
17489;DHT22;8861;52.644;4.734;2024-01-11T08:23:14;-1.40;99.90
17489;DHT22;8861;52.644;4.734;2024-01-11T08:25:43;-1.30;99.90
17489;DHT22;8861;52.644;4.734;2024-01-11T08:28:10;-1.30;99.90
17489;DHT22;8861;52.644;4.734;2024-01-11T08:30:37;-1.20;99.90
17489;DHT22;8861;52.644;4.734;2024-01-11T08:33:04;-1.20;99.90
17489;DHT22;8861;52.644;4.734;2024-01-11T08:35:31;-1.10;99.90
17489;DHT22;8861;52.644;4.734;2024-01-11T08:37:58;-1.00;99.90
17489;DHT22;8861;52.644;4.734;2024-01-11T08:40:25;-1.00;99.90
17489;DHT22;8861;52.644;4.734;2024-01-11T08:42:54;-0.90;99.90
17489;DHT22;8861;52.644;4.734;2024-01-11T08:45:21;-0.90;99.90
17489;DHT22;8861;52.644;4.734;2024-01-11T08:47:48;-0.80;99.90
17489;DHT22;8861;52.644;4.734;2024-01-11T08:50:16;-0.70;99.90
17489;DHT22;8861;52.644;4.734;2024-01-11T08:52:43;-0.70;99.90
17489;DHT22;8861;52.644;4.734;2024-01-11T08:55:11;-0.60;99.90
17489;DHT22;8861;52.644;4.734;2024-01-11T08:57:39;-0.50;99.90
17489;DHT22;8861;52.644;4.734;2024-01-11T09:00:09;-0.50;99.90
17489;DHT22;8861;52.644;4.734;2024-01-11T09:02:36;-0.40;99.90
17489;DHT22;8861;52.644;4.734;2024-01-11T09:05:03;-0.40;99.90
17489;DHT22;8861;52.644;4.734;2024-01-11T09:07:32;-0.30;99.90
17489;DHT22;8861;52.644;4.734;2024-01-11T09:09:59;-0.20;99.90
17489;DHT22;8861;52.644;4.734;2024-01-11T09:12:26;-0.20;99.90
17489;DHT22;8861;52.644;4.734;2024-01-11T09:14:53;-0.10;99.90
17489;DHT22;8861;52.644;4.734;2024-01-11T09:17:22;-0.10;99.90
17489;DHT22;8861;52.644;4.734;2024-01-11T09:19:49;-0.10;99.90
17489;DHT22;8861;52.644;4.734;2024-01-11T09:22:16;0.00;99.90
17489;DHT22;8861;52.644;4.734;2024-01-11T09:24:43;0.10;99.90
17489;DHT22;8861;52.644;4.734;2024-01-11T09:27:10;0.10;99.90
17489;DHT22;8861;52.644;4.734;2024-01-11T09:29:42;0.20;99.90
17489;DHT22;8861;52.644;4.734;2024-01-11T09:32:09;0.30;99.90
17489;DHT22;8861;52.644;4.734;2024-01-11T09:34:38;0.30;99.90
17489;DHT22;8861;52.644;4.734;2024-01-11T09:37:05;0.40;99.90
17489;DHT22;8861;52.644;4.734;2024-01-11T09:39:32;0.50;99.90
17489;DHT22;8861;52.644;4.734;2024-01-11T09:42:07;0.50;99.90
17489;DHT22;8861;52.644;4.734;2024-01-11T09:44:36;0.60;99.90
17489;DHT22;8861;52.644;4.734;2024-01-11T09:47:04;0.60;99.90
17489;DHT22;8861;52.644;4.734;2024-01-11T09:49:33;0.70;99.90
17489;DHT22;8861;52.644;4.734;2024-01-11T09:52:02;0.80;99.90
17489;DHT22;8861;52.644;4.734;2024-01-11T09:54:29;0.90;99.90
17489;DHT22;8861;52.644;4.734;2024-01-11T09:56:59;0.90;99.90
17489;DHT22;8861;52.644;4.734;2024-01-11T09:59:26;1.00;99.90
17489;DHT22;8861;52.644;4.734;2024-01-11T10:01:54;1.10;99.90
17489;DHT22;8861;52.644;4.734;2024-01-11T10:04:21;1.20;99.90
17489;DHT22;8861;52.644;4.734;2024-01-11T10:06:49;1.20;99.90
17489;DHT22;8861;52.644;4.734;2024-01-11T10:09:18;1.30;99.90
17489;DHT22;8861;52.644;4.734;2024-01-11T10:11:45;1.40;99.90
17489;DHT22;8861;52.644;4.734;2024-01-11T10:14:14;1.50;99.90
17489;DHT22;8861;52.644;4.734;2024-01-11T10:16:41;1.60;99.90
17489;DHT22;8861;52.644;4.734;2024-01-11T10:19:09;1.70;99.90
17489;DHT22;8861;52.644;4.734;2024-01-11T10:21:38;1.80;99.90
17489;DHT22;8861;52.644;4.734;2024-01-11T10:24:05;1.90;99.90
17489;DHT22;8861;52.644;4.734;2024-01-11T10:26:34;1.90;99.90
17489;DHT22;8861;52.644;4.734;2024-01-11T10:29:02;2.00;99.90
17489;DHT22;8861;52.644;4.734;2024-01-11T10:31:31;2.10;99.90
17489;DHT22;8861;52.644;4.734;2024-01-11T10:34:00;2.20;99.90
17489;DHT22;8861;52.644;4.734;2024-01-11T10:36:30;2.20;99.90
17489;DHT22;8861;52.644;4.734;2024-01-11T10:38:59;2.30;99.90
17489;DHT22;8861;52.644;4.734;2024-01-11T10:41:29;2.40;99.90
17489;DHT22;8861;52.644;4.734;2024-01-11T10:44:01;2.40;99.90
17489;DHT22;8861;52.644;4.734;2024-01-11T10:46:32;2.40;99.90
17489;DHT22;8861;52.644;4.734;2024-01-11T10:48:59;2.50;99.90
17489;DHT22;8861;52.644;4.734;2024-01-11T10:51:32;2.50;99.90
17489;DHT22;8861;52.644;4.734;2024-01-11T10:53:59;2.60;99.90
17489;DHT22;8861;52.644;4.734;2024-01-11T10:56:27;2.60;99.90
17489;DHT22;8861;52.644;4.734;2024-01-11T10:58:55;2.60;99.90
17489;DHT22;8861;52.644;4.734;2024-01-11T11:01:25;2.70;99.90
17489;DHT22;8861;52.644;4.734;2024-01-11T11:03:53;2.70;99.90
17489;DHT22;8861;52.644;4.734;2024-01-11T11:06:22;2.70;99.90
17489;DHT22;8861;52.644;4.734;2024-01-11T11:08:50;2.80;99.90
17489;DHT22;8861;52.644;4.734;2024-01-11T11:11:19;2.80;99.90
17489;DHT22;8861;52.644;4.734;2024-01-11T11:13:47;2.90;99.90
17489;DHT22;8861;52.644;4.734;2024-01-11T11:16:15;2.90;99.90
17489;DHT22;8861;52.644;4.734;2024-01-11T11:18:43;3.00;99.90
17489;DHT22;8861;52.644;4.734;2024-01-11T11:21:11;3.10;99.90
17489;DHT22;8861;52.644;4.734;2024-01-11T11:23:38;3.20;99.90
17489;DHT22;8861;52.644;4.734;2024-01-11T11:26:06;3.30;99.90
17489;DHT22;8861;52.644;4.734;2024-01-11T11:28:35;3.30;99.90
17489;DHT22;8861;52.644;4.734;2024-01-11T11:31:02;3.40;99.90
17489;DHT22;8861;52.644;4.734;2024-01-11T11:33:30;3.50;99.90
17489;DHT22;8861;52.644;4.734;2024-01-11T11:35:59;3.50;99.90
17489;DHT22;8861;52.644;4.734;2024-01-11T11:38:27;3.50;99.90
17489;DHT22;8861;52.644;4.734;2024-01-11T11:40:57;3.50;99.90
17489;DHT22;8861;52.644;4.734;2024-01-11T11:43:26;3.50;99.90
17489;DHT22;8861;52.644;4.734;2024-01-11T11:45:53;3.50;99.90
17489;DHT22;8861;52.644;4.734;2024-01-11T11:48:49;3.60;99.90
17489;DHT22;8861;52.644;4.734;2024-01-11T11:51:19;3.60;99.90
17489;DHT22;8861;52.644;4.734;2024-01-11T11:53:48;3.60;99.90
17489;DHT22;8861;52.644;4.734;2024-01-11T11:56:17;3.60;99.90
17489;DHT22;8861;52.644;4.734;2024-01-11T11:58:45;3.60;99.90
17489;DHT22;8861;52.644;4.734;2024-01-11T12:01:13;3.60;99.90
17489;DHT22;8861;52.644;4.734;2024-01-11T12:03:42;3.60;99.90
17489;DHT22;8861;52.644;4.734;2024-01-11T12:06:15;3.60;99.90
17489;DHT22;8861;52.644;4.734;2024-01-11T12:08:44;3.60;99.90
17489;DHT22;8861;52.644;4.734;2024-01-11T12:11:13;3.60;99.90
17489;DHT22;8861;52.644;4.734;2024-01-11T12:13:41;3.70;99.90
17489;DHT22;8861;52.644;4.734;2024-01-11T12:16:10;3.70;99.90
17489;DHT22;8861;52.644;4.734;2024-01-11T12:18:37;3.70;99.90
17489;DHT22;8861;52.644;4.734;2024-01-11T12:21:04;3.70;99.90
17489;DHT22;8861;52.644;4.734;2024-01-11T12:23:31;3.70;99.90
17489;DHT22;8861;52.644;4.734;2024-01-11T12:26:01;3.80;99.90
17489;DHT22;8861;52.644;4.734;2024-01-11T12:28:29;3.70;99.90
17489;DHT22;8861;52.644;4.734;2024-01-11T12:30:57;3.80;99.90
17489;DHT22;8861;52.644;4.734;2024-01-11T12:33:26;3.80;99.90
17489;DHT22;8861;52.644;4.734;2024-01-11T12:35:53;3.90;99.90
17489;DHT22;8861;52.644;4.734;2024-01-11T12:38:20;3.90;99.90
17489;DHT22;8861;52.644;4.734;2024-01-11T12:40:48;3.90;99.90
17489;DHT22;8861;52.644;4.734;2024-01-11T12:43:17;3.90;99.90
17489;DHT22;8861;52.644;4.734;2024-01-11T12:45:44;3.90;99.90
17489;DHT22;8861;52.644;4.734;2024-01-11T12:48:11;3.90;99.90
17489;DHT22;8861;52.644;4.734;2024-01-11T12:50:42;3.90;99.90
17489;DHT22;8861;52.644;4.734;2024-01-11T12:53:10;4.00;99.90
17489;DHT22;8861;52.644;4.734;2024-01-11T12:55:43;4.00;99.90
17489;DHT22;8861;52.644;4.734;2024-01-11T12:58:10;4.00;99.90
17489;DHT22;8861;52.644;4.734;2024-01-11T13:00:39;4.00;99.90
17489;DHT22;8861;52.644;4.734;2024-01-11T13:03:06;4.00;99.90
17489;DHT22;8861;52.644;4.734;2024-01-11T13:05:35;4.10;99.90
17489;DHT22;8861;52.644;4.734;2024-01-11T13:08:07;4.10;99.90
17489;DHT22;8861;52.644;4.734;2024-01-11T13:10:34;4.10;99.90
17489;DHT22;8861;52.644;4.734;2024-01-11T13:13:01;4.10;99.90
17489;DHT22;8861;52.644;4.734;2024-01-11T13:15:29;4.10;99.90
17489;DHT22;8861;52.644;4.734;2024-01-11T13:17:59;4.10;99.90
17489;DHT22;8861;52.644;4.734;2024-01-11T13:20:27;4.10;99.90
17489;DHT22;8861;52.644;4.734;2024-01-11T13:23:11;4.20;99.90
17489;DHT22;8861;52.644;4.734;2024-01-11T13:25:39;4.30;99.90
17489;DHT22;8861;52.644;4.734;2024-01-11T13:28:06;4.30;99.90
17489;DHT22;8861;52.644;4.734;2024-01-11T13:30:33;4.40;99.90
17489;DHT22;8861;52.644;4.734;2024-01-11T13:33:04;4.40;99.90
17489;DHT22;8861;52.644;4.734;2024-01-11T13:35:31;4.40;99.90
17489;DHT22;8861;52.644;4.734;2024-01-11T13:37:58;4.40;99.90
17489;DHT22;8861;52.644;4.734;2024-01-11T13:40:25;4.50;99.90
17489;DHT22;8861;52.644;4.734;2024-01-11T13:42:54;4.50;99.90
17489;DHT22;8861;52.644;4.734;2024-01-11T13:45:21;4.60;99.90
17489;DHT22;8861;52.644;4.734;2024-01-11T13:47:48;4.70;99.90
17489;DHT22;8861;52.644;4.734;2024-01-11T13:50:16;4.70;99.90
17489;DHT22;8861;52.644;4.734;2024-01-11T13:52:44;4.80;99.90
17489;DHT22;8861;52.644;4.734;2024-01-11T13:55:12;4.80;99.90
17489;DHT22;8861;52.644;4.734;2024-01-11T13:57:39;4.80;99.90
17489;DHT22;8861;52.644;4.734;2024-01-11T14:00:09;4.90;99.90
17489;DHT22;8861;52.644;4.734;2024-01-11T14:02:37;4.90;99.90
17489;DHT22;8861;52.644;4.734;2024-01-11T14:05:06;4.90;99.90
17489;DHT22;8861;52.644;4.734;2024-01-11T14:07:37;5.00;99.90
17489;DHT22;8861;52.644;4.734;2024-01-11T14:10:04;5.00;99.90
17489;DHT22;8861;52.644;4.734;2024-01-11T14:12:33;5.00;99.90
17489;DHT22;8861;52.644;4.734;2024-01-11T14:15:02;5.00;99.90
17489;DHT22;8861;52.644;4.734;2024-01-11T14:17:29;5.00;99.90
17489;DHT22;8861;52.644;4.734;2024-01-11T14:19:56;5.00;99.90
17489;DHT22;8861;52.644;4.734;2024-01-11T14:22:24;5.00;99.90
17489;DHT22;8861;52.644;4.734;2024-01-11T14:24:52;5.00;99.90
17489;DHT22;8861;52.644;4.734;2024-01-11T14:27:20;5.00;99.90
17489;DHT22;8861;52.644;4.734;2024-01-11T14:29:47;5.00;99.90
17489;DHT22;8861;52.644;4.734;2024-01-11T14:32:14;5.00;99.90
17489;DHT22;8861;52.644;4.734;2024-01-11T14:34:42;5.10;99.90
17489;DHT22;8861;52.644;4.734;2024-01-11T14:37:10;5.10;99.90
17489;DHT22;8861;52.644;4.734;2024-01-11T14:39:37;5.20;99.90
17489;DHT22;8861;52.644;4.734;2024-01-11T14:42:06;5.20;99.90
17489;DHT22;8861;52.644;4.734;2024-01-11T14:44:34;5.20;99.90
17489;DHT22;8861;52.644;4.734;2024-01-11T14:47:02;5.20;99.90
17489;DHT22;8861;52.644;4.734;2024-01-11T14:49:29;5.20;99.90
17489;DHT22;8861;52.644;4.734;2024-01-11T14:51:56;5.20;99.90
17489;DHT22;8861;52.644;4.734;2024-01-11T14:54:23;5.10;99.90
17489;DHT22;8861;52.644;4.734;2024-01-11T14:56:50;5.10;99.90
17489;DHT22;8861;52.644;4.734;2024-01-11T14:59:19;5.10;99.90
17489;DHT22;8861;52.644;4.734;2024-01-11T15:01:46;5.10;99.90
17489;DHT22;8861;52.644;4.734;2024-01-11T15:04:13;5.10;99.90
17489;DHT22;8861;52.644;4.734;2024-01-11T15:06:40;5.10;99.90
17489;DHT22;8861;52.644;4.734;2024-01-11T15:09:07;5.20;99.90
17489;DHT22;8861;52.644;4.734;2024-01-11T15:11:37;5.20;99.90
17489;DHT22;8861;52.644;4.734;2024-01-11T15:14:05;5.20;99.90
17489;DHT22;8861;52.644;4.734;2024-01-11T15:16:33;5.20;99.90
17489;DHT22;8861;52.644;4.734;2024-01-11T15:19:01;5.20;99.90
17489;DHT22;8861;52.644;4.734;2024-01-11T15:21:28;5.30;99.90
17489;DHT22;8861;52.644;4.734;2024-01-11T15:23:56;5.30;99.90
17489;DHT22;8861;52.644;4.734;2024-01-11T15:26:24;5.30;99.90
17489;DHT22;8861;52.644;4.734;2024-01-11T15:28:51;5.20;99.90
17489;DHT22;8861;52.644;4.734;2024-01-11T15:31:18;5.20;99.90
17489;DHT22;8861;52.644;4.734;2024-01-11T15:33:47;5.20;99.90
17489;DHT22;8861;52.644;4.734;2024-01-11T15:36:16;5.20;99.90
17489;DHT22;8861;52.644;4.734;2024-01-11T15:38:44;5.20;99.90
17489;DHT22;8861;52.644;4.734;2024-01-11T15:41:12;5.20;99.90
17489;DHT22;8861;52.644;4.734;2024-01-11T15:43:39;5.20;99.90
17489;DHT22;8861;52.644;4.734;2024-01-11T15:46:06;5.10;99.90
17489;DHT22;8861;52.644;4.734;2024-01-11T15:48:33;5.10;99.90
17489;DHT22;8861;52.644;4.734;2024-01-11T15:51:02;5.10;99.90
17489;DHT22;8861;52.644;4.734;2024-01-11T15:53:29;5.00;99.90
17489;DHT22;8861;52.644;4.734;2024-01-11T15:55:56;5.00;99.90